アデレード の空港の天気 - METARとTAF

アデレード空港 ( YPAD / ADL ) - オーストラリア 南オーストラリア州アデレード
飛行場実況気象(Metar)
観測時間05/26 18:30 ACST (05/26 09:00 UTC)
風向・風速北 3m/s
視程10km以上
天気現象
なし
気温15℃
湿度51%
気圧1017hPa
METARYPAD 260900Z 36006KT CAVOK 15/05 Q1017
過去の天気等 Google飛行場航空写真 Wunderground天気予報

過去48時間のMETAR

飛行場予報(TAF)
発表時間: 5/26 14:50 ACST (5/26 05:20 UTC)
予報対象時間: 26日15時 ACST ~ 27日21時 ACST
風向・風速北 7m/s
視程10km以上
なし
26日19時 ACST から
風向・風速北 6m/s
視程10km以上
天気現象弱い雨
全天の4割程度の雲 雲底高度 1520m
27日1時 ACST から
風向・風速北 5m/s
視程10km以上
天気現象弱い雨
全天の4割程度の雲 雲底高度 910m
27日7時 ACST から
風向・風速北 6m/s
視程10km以上
天気現象弱い雨
全天の4割程度の雲 雲底高度 460m
全天の8割程度の雲 雲底高度 760m
27日12時 ACST から
風向・風速北西 6m/s
視程10km以上
天気現象弱いしゅう雨
全天の8割程度の雲 雲底高度 610m
TAF AMD YPAD 260520Z 2606/2712 36013KT CAVOK
FM261000 36012KT 9999 -RA SCT050
FM261600 01010KT 9999 -RA SCT030
FM262200 36012KT 9999 -RA SCT015 BKN025
FM270300 31012KT 9999 -SHRA BKN020 INTER 2703/2712 4000 SHRA BKN014